createdAt,value
2017-09-26T00:02:05.555Z,102058
2017-09-26T00:04:31.823Z,102056
2017-09-26T00:06:58.814Z,102061
2017-09-26T00:09:25.081Z,102060
2017-09-26T00:11:51.335Z,102059
2017-09-26T00:14:18.312Z,102061
2017-09-26T00:16:44.541Z,102063
2017-09-26T00:19:10.793Z,102056
2017-09-26T00:21:37.031Z,102055
2017-09-26T00:24:03.390Z,102049
2017-09-26T00:26:30.706Z,102050
2017-09-26T00:28:56.938Z,102053
2017-09-26T00:31:23.187Z,102053
2017-09-26T00:33:49.472Z,102058
2017-09-26T00:36:15.726Z,102055
2017-09-26T00:38:42.002Z,102055
2017-09-26T00:41:09.033Z,102059
2017-09-26T00:43:36.016Z,102060
2017-09-26T00:46:02.262Z,102061
2017-09-26T00:48:28.536Z,102058
2017-09-26T00:50:55.546Z,102063
2017-09-26T00:53:21.833Z,102056
2017-09-26T00:55:48.094Z,102054
2017-09-26T00:58:14.364Z,102054
2017-09-26T01:00:40.637Z,102048
2017-09-26T01:03:06.969Z,102051
2017-09-26T01:08:33.759Z,102048
2017-09-26T01:10:59.978Z,102055
2017-09-26T01:13:26.208Z,102050
2017-09-26T01:15:52.441Z,102051
2017-09-26T01:18:18.659Z,102054
2017-09-26T01:20:44.953Z,102054
2017-09-26T01:23:11.414Z,102056
2017-09-26T01:25:37.688Z,102053
2017-09-26T01:28:04.704Z,102058
2017-09-26T01:30:30.975Z,102060
2017-09-26T01:32:57.948Z,102062
2017-09-26T01:35:24.154Z,102061
2017-09-26T01:37:51.159Z,102057
2017-09-26T01:40:17.363Z,102060
2017-09-26T01:42:43.578Z,102054
2017-09-26T01:45:12.397Z,102056
2017-09-26T01:47:38.798Z,102053
2017-09-26T01:50:05.023Z,102052
2017-09-26T01:52:31.289Z,102053
2017-09-26T01:54:57.523Z,102050
2017-09-26T01:57:24.650Z,102058
2017-09-26T01:59:51.696Z,102056
2017-09-26T02:02:17.905Z,102053
2017-09-26T02:04:44.124Z,102059
2017-09-26T02:07:10.583Z,102062
2017-09-26T02:09:36.783Z,102061
2017-09-26T02:12:03.104Z,102062
2017-09-26T02:14:30.075Z,102064
2017-09-26T02:16:56.296Z,102062
2017-09-26T02:19:22.511Z,102063
2017-09-26T02:21:48.739Z,102063
2017-09-26T02:24:14.956Z,102065
2017-09-26T02:26:41.916Z,102064
2017-09-26T02:29:08.149Z,102070
2017-09-26T02:31:34.356Z,102065
2017-09-26T02:34:01.361Z,102062
2017-09-26T02:36:27.616Z,102060
2017-09-26T02:38:53.898Z,102069
2017-09-26T02:41:20.093Z,102064
2017-09-26T02:43:47.052Z,102062
2017-09-26T02:46:13.260Z,102062
2017-09-26T02:48:40.255Z,102061
2017-09-26T02:51:06.495Z,102065
2017-09-26T02:53:32.712Z,102057
2017-09-26T02:55:58.952Z,102062
2017-09-26T02:58:25.165Z,102065
2017-09-26T03:00:51.384Z,102062
2017-09-26T03:03:17.826Z,102067
2017-09-26T03:05:44.032Z,102068
2017-09-26T03:08:10.244Z,102065
2017-09-26T03:10:36.571Z,102060
2017-09-26T03:13:03.520Z,102064
2017-09-26T03:15:29.743Z,102068
2017-09-26T03:17:55.954Z,102065
2017-09-26T03:20:22.920Z,102072
2017-09-26T03:22:49.180Z,102074
2017-09-26T03:25:15.388Z,102072
2017-09-26T03:27:41.595Z,102069
2017-09-26T03:30:08.894Z,102072
2017-09-26T03:32:35.853Z,102073
2017-09-26T03:35:02.132Z,102075
2017-09-26T03:37:28.560Z,102077
2017-09-26T03:39:55.520Z,102077
2017-09-26T03:42:21.739Z,102079
2017-09-26T03:44:47.968Z,102073
2017-09-26T03:47:14.184Z,102073
2017-09-26T03:49:41.136Z,102071
2017-09-26T03:52:07.384Z,102072
2017-09-26T03:54:33.597Z,102071
2017-09-26T03:56:59.829Z,102078
2017-09-26T03:59:26.088Z,102078
2017-09-26T04:01:52.309Z,102082
2017-09-26T04:04:18.548Z,102086
2017-09-26T04:06:45.172Z,102082
2017-09-26T04:09:11.428Z,102086
2017-09-26T04:11:37.672Z,102085
2017-09-26T04:14:03.901Z,102085
2017-09-26T04:16:30.143Z,102088
2017-09-26T04:18:57.179Z,102088
2017-09-26T04:21:24.171Z,102086
2017-09-26T04:23:50.400Z,102087
2017-09-26T04:26:16.680Z,102085
2017-09-26T04:28:43.662Z,102081
2017-09-26T04:31:09.916Z,102082
2017-09-26T04:33:36.196Z,102081
2017-09-26T04:36:03.163Z,102078
2017-09-26T04:38:29.379Z,102079
2017-09-26T04:40:55.651Z,102077
2017-09-26T04:43:21.880Z,102080
2017-09-26T04:45:48.111Z,102085
2017-09-26T04:48:14.628Z,102084
2017-09-26T04:50:40.836Z,102085
2017-09-26T04:53:07.040Z,102076
2017-09-26T04:55:34.000Z,102079
2017-09-26T04:58:00.213Z,102080
2017-09-26T05:00:27.211Z,102078
2017-09-26T05:02:53.747Z,102079
2017-09-26T05:05:20.007Z,102082
2017-09-26T05:07:46.222Z,102091
2017-09-26T05:10:12.460Z,102089
2017-09-26T05:12:38.695Z,102089
2017-09-26T05:15:04.969Z,102094
2017-09-26T05:17:31.192Z,102096
2017-09-26T05:19:57.584Z,102094
2017-09-26T05:22:24.565Z,102097
2017-09-26T05:24:50.793Z,102096
2017-09-26T05:27:17.056Z,102100
2017-09-26T05:29:43.272Z,102102
2017-09-26T05:32:09.490Z,102104
2017-09-26T05:34:35.733Z,102104
2017-09-26T05:37:01.975Z,102099
2017-09-26T05:39:28.204Z,102109
2017-09-26T05:41:54.436Z,102107
2017-09-26T05:44:20.698Z,102116
2017-09-26T05:46:47.659Z,102113
2017-09-26T05:49:13.925Z,102113
2017-09-26T05:51:40.879Z,102113
2017-09-26T05:54:07.112Z,102114
2017-09-26T05:56:33.412Z,102112
2017-09-26T05:59:00.753Z,102116
2017-09-26T06:01:29.269Z,102113
2017-09-26T06:03:55.602Z,102120
2017-09-26T06:06:21.812Z,102113
2017-09-26T06:08:48.029Z,102117
2017-09-26T06:11:14.272Z,102121
2017-09-26T06:13:40.526Z,102128
2017-09-26T06:16:06.785Z,102131
2017-09-26T06:18:33.752Z,102128
2017-09-26T06:20:59.963Z,102130
2017-09-26T06:23:26.220Z,102130
2017-09-26T06:25:52.444Z,102128
2017-09-26T06:28:18.662Z,102130
2017-09-26T06:30:46.069Z,102133
2017-09-26T06:33:12.739Z,102128
2017-09-26T06:35:40.603Z,102132
2017-09-26T06:38:07.721Z,102138
2017-09-26T06:40:35.040Z,102144
2017-09-26T06:43:02.080Z,102148
2017-09-26T06:45:28.671Z,102149
2017-09-26T06:47:56.595Z,102154
2017-09-26T06:50:23.965Z,102152
2017-09-26T06:52:50.285Z,102154
2017-09-26T06:55:16.508Z,102154
2017-09-26T06:57:43.869Z,102157
2017-09-26T07:00:10.463Z,102158
2017-09-26T07:02:37.866Z,102163
2017-09-26T07:05:05.854Z,102170
2017-09-26T07:07:32.967Z,102167
2017-09-26T07:09:59.205Z,102174
2017-09-26T07:12:25.515Z,102175
2017-09-26T07:14:51.752Z,102177
2017-09-26T07:17:18.419Z,102178
2017-09-26T07:19:44.631Z,102177
2017-09-26T07:22:10.988Z,102184
2017-09-26T07:24:37.204Z,102181
2017-09-26T07:27:03.504Z,102184
2017-09-26T07:29:30.131Z,102185
2017-09-26T07:31:56.352Z,102186
2017-09-26T07:34:22.593Z,102186
2017-09-26T07:36:48.989Z,102198
2017-09-26T07:39:16.312Z,102198
2017-09-26T07:41:43.138Z,102199
2017-09-26T07:44:09.537Z,102204
2017-09-26T07:46:35.801Z,102206
2017-09-26T07:49:02.085Z,102204
2017-09-26T07:51:28.330Z,102210
2017-09-26T07:53:54.945Z,102207
2017-09-26T07:56:22.255Z,102206
2017-09-26T07:58:48.516Z,102209
2017-09-26T08:01:16.161Z,102209
2017-09-26T08:03:43.894Z,102208
2017-09-26T08:06:11.060Z,102207
2017-09-26T08:08:38.320Z,102214
2017-09-26T08:11:04.852Z,102213
2017-09-26T08:13:31.067Z,102218
2017-09-26T08:15:58.387Z,102219
2017-09-26T08:18:26.712Z,102221
2017-09-26T08:20:53.254Z,102226
2017-09-26T08:23:19.484Z,102219
2017-09-26T08:25:45.723Z,102224
2017-09-26T08:28:12.702Z,102225
2017-09-26T08:30:38.920Z,102225
2017-09-26T08:33:06.584Z,102226
2017-09-26T08:35:33.011Z,102226
2017-09-26T08:37:59.299Z,102228
2017-09-26T08:40:25.712Z,102229
2017-09-26T08:42:51.927Z,102231
2017-09-26T08:45:18.163Z,102230
2017-09-26T08:47:44.395Z,102230
2017-09-26T08:50:10.953Z,102232
2017-09-26T08:52:37.212Z,102236
2017-09-26T08:55:04.163Z,102229
2017-09-26T08:57:31.113Z,102238
2017-09-26T08:59:58.070Z,102234
2017-09-26T09:02:24.345Z,102242
2017-09-26T09:04:50.976Z,102245
2017-09-26T09:07:17.192Z,102242
2017-09-26T09:09:43.900Z,102240
2017-09-26T09:12:10.569Z,102247
2017-09-26T09:14:37.060Z,102247
2017-09-26T09:17:03.873Z,102246
2017-09-26T09:19:30.416Z,102243
2017-09-26T09:21:57.636Z,102243
2017-09-26T09:24:24.983Z,102239
2017-09-26T09:26:53.052Z,102240
2017-09-26T09:29:20.332Z,102250
2017-09-26T09:31:48.019Z,102250
2017-09-26T09:34:15.473Z,102249
2017-09-26T09:36:43.475Z,102249
2017-09-26T09:39:10.045Z,102248
2017-09-26T09:41:37.198Z,102256
2017-09-26T09:44:05.086Z,102255
2017-09-26T09:46:32.112Z,102253
2017-09-26T09:49:00.051Z,102257
2017-09-26T09:51:27.966Z,102255
2017-09-26T09:53:54.452Z,102253
2017-09-26T09:56:20.676Z,102256
2017-09-26T09:58:46.898Z,102258
2017-09-26T10:01:13.140Z,102260
2017-09-26T10:03:39.356Z,102255
2017-09-26T10:06:05.564Z,102259
2017-09-26T10:08:33.054Z,102259
2017-09-26T10:10:59.284Z,102262
2017-09-26T10:13:25.496Z,102252
2017-09-26T10:15:52.113Z,102256
2017-09-26T10:18:19.080Z,102255
2017-09-26T10:20:45.298Z,102252
2017-09-26T10:23:11.740Z,102248
2017-09-26T10:25:37.992Z,102252
2017-09-26T10:28:04.347Z,102247
2017-09-26T10:30:30.588Z,102249
2017-09-26T10:32:58.045Z,102249
2017-09-26T10:35:24.933Z,102250
2017-09-26T10:37:51.313Z,102249
2017-09-26T10:40:19.111Z,102249
2017-09-26T10:42:45.401Z,102247
2017-09-26T10:45:11.615Z,102247
2017-09-26T10:47:37.816Z,102245
2017-09-26T10:50:04.044Z,102244
2017-09-26T10:52:30.259Z,102249
2017-09-26T10:54:56.461Z,102251
2017-09-26T10:57:23.444Z,102261
2017-09-26T10:59:49.658Z,102259
2017-09-26T11:02:15.921Z,102254
2017-09-26T11:04:42.193Z,102255
2017-09-26T11:07:09.161Z,102258
2017-09-26T11:09:35.381Z,102252
2017-09-26T11:12:01.616Z,102251
2017-09-26T11:14:27.815Z,102253
2017-09-26T11:16:54.794Z,102244
2017-09-26T11:19:21.187Z,102243
2017-09-26T11:21:47.408Z,102239
2017-09-26T11:24:13.612Z,102242
2017-09-26T11:26:39.836Z,102237
2017-09-26T11:29:06.036Z,102236
2017-09-26T11:31:32.261Z,102241
2017-09-26T11:33:58.518Z,102236
2017-09-26T11:36:24.743Z,102233
2017-09-26T11:38:51.341Z,102228
2017-09-26T11:41:18.335Z,102236
2017-09-26T11:43:44.549Z,102227
2017-09-26T11:46:10.772Z,102237
2017-09-26T11:48:37.007Z,102238
2017-09-26T11:51:03.240Z,102240
2017-09-26T11:53:29.455Z,102239
2017-09-26T11:55:55.688Z,102240
2017-09-26T11:58:21.896Z,102248
2017-09-26T12:00:48.125Z,102238
2017-09-26T12:03:14.510Z,102241
2017-09-26T12:05:40.768Z,102243
2017-09-26T12:08:07.715Z,102243
2017-09-26T12:10:34.697Z,102241
2017-09-26T12:13:07.039Z,102245
2017-09-26T12:15:33.264Z,102246
2017-09-26T12:17:59.484Z,102247
2017-09-26T12:20:26.433Z,102245
2017-09-26T12:22:53.393Z,102244
2017-09-26T12:25:19.621Z,102245
2017-09-26T12:27:45.860Z,102238
2017-09-26T12:30:12.064Z,102243
2017-09-26T12:32:38.325Z,102239
2017-09-26T12:35:04.532Z,102237
2017-09-26T12:37:30.744Z,102236
2017-09-26T12:39:57.013Z,102232
2017-09-26T12:42:23.260Z,102230
2017-09-26T12:44:49.458Z,102226
2017-09-26T12:47:15.671Z,102222
2017-09-26T12:49:41.880Z,102225
2017-09-26T12:52:08.832Z,102223
2017-09-26T12:54:35.074Z,102218
2017-09-26T12:57:01.287Z,102212
2017-09-26T12:59:27.515Z,102210
2017-09-26T13:01:53.780Z,102213
2017-09-26T13:04:19.989Z,102208
2017-09-26T13:06:46.208Z,102203
2017-09-26T13:09:12.443Z,102205
2017-09-26T13:11:38.652Z,102212
2017-09-26T13:14:05.600Z,102195
2017-09-26T13:16:32.289Z,102196
2017-09-26T13:18:58.529Z,102206
2017-09-26T13:21:24.766Z,102196
2017-09-26T13:23:51.009Z,102200
2017-09-26T13:26:17.968Z,102203
2017-09-26T13:28:44.172Z,102203
2017-09-26T13:31:11.120Z,102197
2017-09-26T13:33:38.071Z,102202
2017-09-26T13:36:05.015Z,102204
2017-09-26T13:38:31.957Z,102204
2017-09-26T13:41:00.798Z,102213
2017-09-26T13:43:27.949Z,102210
2017-09-26T13:45:55.822Z,102210
2017-09-26T13:48:24.399Z,102213
2017-09-26T13:50:51.529Z,102208
2017-09-26T13:53:17.749Z,102206
2017-09-26T13:55:44.659Z,102207
2017-09-26T13:58:11.036Z,102209
2017-09-26T14:00:37.261Z,102212
2017-09-26T14:03:03.499Z,102216
2017-09-26T14:05:29.907Z,102216
2017-09-26T14:07:56.388Z,102218
2017-09-26T14:10:22.731Z,102217
2017-09-26T14:12:48.932Z,102220
2017-09-26T14:15:15.220Z,102215
2017-09-26T14:17:42.188Z,102213
2017-09-26T14:20:08.554Z,102214
2017-09-26T14:22:34.767Z,102212
2017-09-26T14:25:01.008Z,102209
2017-09-26T14:27:27.223Z,102207
2017-09-26T14:29:53.427Z,102207
2017-09-26T14:32:19.988Z,102202
2017-09-26T14:34:46.199Z,102207
2017-09-26T14:37:12.429Z,102203
2017-09-26T14:39:38.642Z,102209
2017-09-26T14:42:04.854Z,102206
2017-09-26T14:44:31.831Z,102204
2017-09-26T14:46:58.048Z,102205
2017-09-26T14:49:24.261Z,102207
2017-09-26T14:51:50.500Z,102207
2017-09-26T14:54:16.719Z,102207
2017-09-26T14:56:42.928Z,102210
2017-09-26T14:59:09.897Z,102208
2017-09-26T15:01:36.129Z,102215
2017-09-26T15:04:02.390Z,102214
2017-09-26T15:06:28.595Z,102213
2017-09-26T15:08:55.043Z,102217
2017-09-26T15:11:22.052Z,102218
2017-09-26T15:13:48.544Z,102216
2017-09-26T15:16:16.883Z,102212
2017-09-26T15:18:43.891Z,102211
2017-09-26T15:21:10.840Z,102212
2017-09-26T15:23:37.794Z,102213
2017-09-26T15:26:04.756Z,102214
2017-09-26T15:28:30.953Z,102217
2017-09-26T15:30:57.937Z,102214
2017-09-26T15:33:24.160Z,102217
2017-09-26T15:35:50.369Z,102212
2017-09-26T15:38:17.432Z,102220
2017-09-26T15:40:43.636Z,102213
2017-09-26T15:43:10.596Z,102214
2017-09-26T15:45:36.803Z,102215
2017-09-26T15:48:03.762Z,102215
2017-09-26T15:50:30.837Z,102222
2017-09-26T15:52:57.054Z,102217
2017-09-26T15:55:23.256Z,102224
2017-09-26T15:57:50.240Z,102223
2017-09-26T16:00:16.479Z,102217
2017-09-26T16:02:42.693Z,102218
2017-09-26T16:05:09.131Z,102229
2017-09-26T16:07:35.345Z,102234
2017-09-26T16:10:01.600Z,102228
2017-09-26T16:12:27.987Z,102231
2017-09-26T16:14:54.196Z,102227
2017-09-26T16:17:21.164Z,102222
2017-09-26T16:19:47.425Z,102220
2017-09-26T16:22:13.632Z,102217
2017-09-26T16:24:39.872Z,102218
2017-09-26T16:27:06.096Z,102218
2017-09-26T16:29:32.307Z,102218
2017-09-26T16:31:58.533Z,102213
2017-09-26T16:34:24.743Z,102218
2017-09-26T16:36:51.731Z,102221
2017-09-26T16:39:18.019Z,102220
2017-09-26T16:41:45.200Z,102226
2017-09-26T16:44:11.396Z,102229
2017-09-26T16:46:38.380Z,102231
2017-09-26T16:49:04.596Z,102231
2017-09-26T16:51:31.251Z,102231
2017-09-26T16:53:58.201Z,102236
2017-09-26T16:56:24.674Z,102235
2017-09-26T16:58:50.915Z,102237
2017-09-26T17:01:18.003Z,102242
2017-09-26T17:03:44.224Z,102245
2017-09-26T17:06:10.573Z,102251
2017-09-26T17:08:37.048Z,102250
2017-09-26T17:11:03.315Z,102258
2017-09-26T17:13:29.529Z,102259
2017-09-26T17:15:55.748Z,102258
2017-09-26T17:18:22.736Z,102259
2017-09-26T17:20:49.156Z,102254
2017-09-26T17:23:15.383Z,102261
2017-09-26T17:25:42.053Z,102261
2017-09-26T17:28:08.801Z,102266
2017-09-26T17:30:35.020Z,102269
2017-09-26T17:33:01.270Z,102264
2017-09-26T17:35:28.585Z,102270
2017-09-26T17:37:54.964Z,102272
2017-09-26T17:40:22.017Z,102280
2017-09-26T17:42:48.883Z,102286
2017-09-26T17:45:15.481Z,102285
2017-09-26T17:47:42.874Z,102288
2017-09-26T17:50:09.150Z,102287
2017-09-26T17:52:35.381Z,102285
2017-09-26T17:55:01.609Z,102287
2017-09-26T17:57:28.624Z,102287
2017-09-26T17:59:55.192Z,102289
2017-09-26T18:02:21.483Z,102292
2017-09-26T18:04:47.821Z,102292
2017-09-26T18:07:14.124Z,102297
2017-09-26T18:09:40.614Z,102296
2017-09-26T18:12:07.288Z,102292
2017-09-26T18:14:33.565Z,102297
2017-09-26T18:16:59.854Z,102298
2017-09-26T18:19:26.423Z,102298
2017-09-26T18:21:52.705Z,102300
2017-09-26T18:24:19.392Z,102305
2017-09-26T18:26:45.964Z,102305
2017-09-26T18:29:12.318Z,102307
2017-09-26T18:31:38.621Z,102307
2017-09-26T18:34:05.589Z,102311
2017-09-26T18:36:31.923Z,102311
2017-09-26T18:38:58.544Z,102315
2017-09-26T18:41:25.633Z,102311
2017-09-26T18:43:52.100Z,102317
2017-09-26T18:46:18.462Z,102321
2017-09-26T18:48:44.784Z,102325
2017-09-26T18:51:13.181Z,102318
2017-09-26T18:53:39.540Z,102325
2017-09-26T18:56:05.859Z,102328
2017-09-26T18:58:32.287Z,102330
2017-09-26T19:00:59.031Z,102334
2017-09-26T19:03:25.302Z,102333
2017-09-26T19:05:51.619Z,102334
2017-09-26T19:08:17.930Z,102335
2017-09-26T19:10:44.540Z,102336
2017-09-26T19:13:11.131Z,102335
2017-09-26T19:15:37.425Z,102336
2017-09-26T19:18:03.889Z,102337
2017-09-26T19:20:30.597Z,102340
2017-09-26T19:22:57.079Z,102341
2017-09-26T19:25:23.590Z,102341
2017-09-26T19:27:50.136Z,102341
2017-09-26T19:30:16.415Z,102337
2017-09-26T19:32:42.900Z,102344
2017-09-26T19:35:09.380Z,102338
2017-09-26T19:37:36.384Z,102340
2017-09-26T19:40:02.709Z,102343
2017-09-26T19:42:29.294Z,102343
2017-09-26T19:44:55.889Z,102345
2017-09-26T19:47:22.101Z,102348
2017-09-26T19:49:48.813Z,102355
2017-09-26T19:52:15.212Z,102361
2017-09-26T19:54:41.545Z,102365
2017-09-26T19:57:08.521Z,102362
2017-09-26T19:59:34.910Z,102362
2017-09-26T20:02:01.975Z,102353
2017-09-26T20:04:29.379Z,102360
2017-09-26T20:06:55.967Z,102359
2017-09-26T20:09:22.318Z,102349
2017-09-26T20:11:48.550Z,102358
2017-09-26T20:14:14.828Z,102354
2017-09-26T20:16:41.109Z,102356
2017-09-26T20:19:07.782Z,102358
2017-09-26T20:21:34.045Z,102356
2017-09-26T20:24:01.058Z,102359
2017-09-26T20:26:27.306Z,102362
2017-09-26T20:28:53.528Z,102359
2017-09-26T20:31:19.986Z,102356
2017-09-26T20:33:46.259Z,102357
2017-09-26T20:36:12.468Z,102356
2017-09-26T20:38:38.684Z,102358
2017-09-26T20:41:05.131Z,102359
2017-09-26T20:43:31.331Z,102360
2017-09-26T20:45:58.275Z,102358
2017-09-26T20:48:25.245Z,102363
2017-09-26T20:50:51.463Z,102362
2017-09-26T20:53:17.742Z,102363
2017-09-26T20:55:44.021Z,102364
2017-09-26T20:58:10.265Z,102361
2017-09-26T21:00:36.572Z,102364
2017-09-26T21:03:02.839Z,102360
2017-09-26T21:05:29.055Z,102360
2017-09-26T21:07:55.269Z,102363
2017-09-26T21:10:21.500Z,102362
2017-09-26T21:12:47.753Z,102362
2017-09-26T21:15:14.172Z,102360
2017-09-26T21:17:40.401Z,102363
2017-09-26T21:20:06.668Z,102359
2017-09-26T21:22:33.717Z,102359
2017-09-26T21:25:02.657Z,102360
2017-09-26T21:27:28.920Z,102358
2017-09-26T21:29:55.445Z,102356
2017-09-26T21:32:21.665Z,102356
2017-09-26T21:34:47.876Z,102356
2017-09-26T21:37:14.131Z,102356
2017-09-26T21:39:40.414Z,102356
2017-09-26T21:42:06.640Z,102357
2017-09-26T21:44:33.832Z,102359
2017-09-26T21:47:00.040Z,102357
2017-09-26T21:49:26.276Z,102359
2017-09-26T21:51:52.587Z,102363
2017-09-26T21:54:18.804Z,102364
2017-09-26T21:56:45.775Z,102364
2017-09-26T21:59:11.999Z,102361
2017-09-26T22:01:38.212Z,102361
2017-09-26T22:04:04.464Z,102359
2017-09-26T22:06:30.682Z,102360
2017-09-26T22:08:56.910Z,102353
2017-09-26T22:11:23.156Z,102354
2017-09-26T22:13:49.647Z,102356
2017-09-26T22:16:16.595Z,102352
2017-09-26T22:18:43.596Z,102353
2017-09-26T22:21:10.140Z,102358
2017-09-26T22:23:36.918Z,102362
2017-09-26T22:26:03.155Z,102353
2017-09-26T22:28:29.368Z,102350
2017-09-26T22:30:56.619Z,102347
2017-09-26T22:33:23.589Z,102344
2017-09-26T22:35:50.158Z,102347
2017-09-26T22:38:16.399Z,102352
2017-09-26T22:40:42.623Z,102353
2017-09-26T22:43:08.848Z,102346
2017-09-26T22:45:35.361Z,102340
2017-09-26T22:48:01.628Z,102346
2017-09-26T22:50:27.896Z,102346
2017-09-26T22:52:54.445Z,102344
2017-09-26T22:55:20.796Z,102346
2017-09-26T22:57:47.343Z,102348
2017-09-26T23:00:13.577Z,102349
2017-09-26T23:02:39.824Z,102345
2017-09-26T23:05:06.783Z,102347
2017-09-26T23:07:33.807Z,102346
2017-09-26T23:10:00.007Z,102345
2017-09-26T23:12:26.210Z,102342
2017-09-26T23:14:52.462Z,102344
2017-09-26T23:17:18.690Z,102338
2017-09-26T23:19:44.927Z,102341
2017-09-26T23:22:11.351Z,102343
2017-09-26T23:24:37.556Z,102342
2017-09-26T23:27:03.782Z,102339
2017-09-26T23:29:30.030Z,102338
2017-09-26T23:31:56.233Z,102337
2017-09-26T23:34:22.466Z,102344
2017-09-26T23:36:49.026Z,102343
2017-09-26T23:39:15.258Z,102340
2017-09-26T23:41:41.459Z,102341
2017-09-26T23:44:07.953Z,102342
2017-09-26T23:46:34.911Z,102341
2017-09-26T23:49:01.932Z,102339
2017-09-26T23:51:28.175Z,102341
2017-09-26T23:53:55.119Z,102335
2017-09-26T23:56:22.101Z,102340
2017-09-26T23:58:48.315Z,102338
